createdAt,value
2019-04-28T00:00:56.459Z,24.95
2019-04-28T00:03:27.679Z,25.40
2019-04-28T00:05:58.750Z,23.30
2019-04-28T00:08:31.744Z,24.37
2019-04-28T00:11:02.098Z,23.77
2019-04-28T00:13:34.249Z,24.82
2019-04-28T00:16:06.864Z,23.70
2019-04-28T00:18:38.017Z,25.27
2019-04-28T00:21:10.995Z,24.98
2019-04-28T00:23:43.327Z,23.45
2019-04-28T00:26:15.600Z,23.22
2019-04-28T00:28:46.514Z,23.70
2019-04-28T00:31:17.731Z,21.70
2019-04-28T00:33:48.683Z,23.05
2019-04-28T00:36:21.449Z,24.12
2019-04-28T00:38:52.493Z,24.72
2019-04-28T00:41:23.271Z,24.45
2019-04-28T00:43:54.299Z,23.30
2019-04-28T00:46:27.593Z,23.77
2019-04-28T00:48:58.570Z,21.57
2019-04-28T00:51:31.358Z,23.62
2019-04-28T00:54:02.584Z,21.30
2019-04-28T00:56:33.592Z,24.52
2019-04-28T00:59:04.701Z,23.05
2019-04-28T01:01:36.858Z,22.48
2019-04-28T01:04:08.027Z,22.70
2019-04-28T01:06:39.335Z,22.62
2019-04-28T01:09:11.852Z,22.50
2019-04-28T01:11:42.881Z,18.42
2019-04-28T01:14:13.790Z,18.82
2019-04-28T01:16:46.474Z,16.37
2019-04-28T01:19:21.286Z,16.07
2019-04-28T01:21:53.848Z,16.07
2019-04-28T01:24:26.261Z,14.60
2019-04-28T01:27:00.375Z,14.07
2019-04-28T01:29:31.222Z,13.53
2019-04-28T01:32:04.195Z,12.95
2019-04-28T01:34:35.277Z,13.08
2019-04-28T01:37:11.344Z,12.82
2019-04-28T01:39:46.387Z,13.50
2019-04-28T01:42:16.306Z,13.08
2019-04-28T01:44:49.471Z,11.93
2019-04-28T01:47:20.739Z,13.43
2019-04-28T01:49:52.083Z,13.22
2019-04-28T01:52:23.212Z,12.40
2019-04-28T01:54:54.221Z,11.75
2019-04-28T01:57:30.070Z,11.65
2019-04-28T02:00:01.448Z,11.88
2019-04-28T02:02:32.393Z,11.70
2019-04-28T02:05:03.680Z,10.75
2019-04-28T02:10:40.047Z,12.18
2019-04-28T02:13:13.095Z,10.68
2019-04-28T02:15:44.552Z,10.28
2019-04-28T02:18:15.569Z,10.08
2019-04-28T02:24:21.190Z,10.30
2019-04-28T02:26:53.042Z,11.33
2019-04-28T02:29:26.367Z,9.88
2019-04-28T02:31:57.459Z,10.60
2019-04-28T02:34:32.718Z,11.10
2019-04-28T02:37:05.194Z,9.58
2019-04-28T02:39:40.905Z,10.35
2019-04-28T02:42:15.948Z,10.68
2019-04-28T02:44:47.137Z,11.18
2019-04-28T02:47:21.632Z,11.12
2019-04-28T02:49:53.696Z,11.35
2019-04-28T02:52:27.209Z,10.23
2019-04-28T02:55:03.114Z,10.55
2019-04-28T02:57:40.872Z,9.90
2019-04-28T03:00:13.544Z,10.53
2019-04-28T03:02:51.305Z,10.95
2019-04-28T03:05:21.948Z,10.55
2019-04-28T03:07:52.955Z,10.68
2019-04-28T03:10:23.985Z,11.18
2019-04-28T03:12:55.074Z,10.60
2019-04-28T03:15:26.370Z,9.85
2019-04-28T03:17:57.576Z,10.78
2019-04-28T03:20:32.528Z,10.53
2019-04-28T03:23:08.923Z,10.85
2019-04-28T03:25:37.208Z,10.70
2019-04-28T03:28:11.791Z,10.78
2019-04-28T03:30:44.584Z,11.35
2019-04-28T03:33:18.866Z,11.63
2019-04-28T03:35:53.630Z,11.22
2019-04-28T03:38:22.321Z,12.20
2019-04-28T03:40:53.175Z,11.97
2019-04-28T03:43:25.778Z,10.58
2019-04-28T03:46:02.800Z,11.48
2019-04-28T03:48:35.726Z,10.85
2019-04-28T03:51:07.261Z,10.28
2019-04-28T03:53:40.794Z,12.68
2019-04-28T03:56:11.356Z,11.63
2019-04-28T03:58:42.580Z,11.45
2019-04-28T04:01:13.415Z,13.62
2019-04-28T04:03:45.195Z,12.65
2019-04-28T04:06:16.262Z,11.38
2019-04-28T04:08:47.514Z,12.07
2019-04-28T04:11:22.918Z,12.18
2019-04-28T04:13:53.667Z,12.05
2019-04-28T04:16:26.034Z,11.88
2019-04-28T04:19:00.496Z,12.73
2019-04-28T04:21:36.612Z,11.20
2019-04-28T04:24:10.658Z,12.15
2019-04-28T04:26:43.064Z,10.53
2019-04-28T04:29:14.231Z,11.08
2019-04-28T04:31:45.133Z,11.53
2019-04-28T04:34:15.845Z,12.75
2019-04-28T04:36:47.013Z,11.93
2019-04-28T04:39:20.651Z,11.48
2019-04-28T04:41:55.081Z,11.83
2019-04-28T04:44:26.031Z,11.68
2019-04-28T04:47:02.806Z,12.00
2019-04-28T04:49:35.175Z,11.70
2019-04-28T04:52:06.310Z,11.50
2019-04-28T04:54:41.062Z,11.80
2019-04-28T04:57:12.133Z,11.55
2019-04-28T04:59:45.706Z,11.73
2019-04-28T05:02:29.577Z,11.35
2019-04-28T05:04:55.803Z,11.20
2019-04-28T05:07:27.383Z,10.90
2019-04-28T05:09:59.584Z,11.10
2019-04-28T05:12:32.117Z,11.65
2019-04-28T05:15:04.168Z,10.70
2019-04-28T05:17:40.185Z,11.33
2019-04-28T05:20:11.934Z,11.70
2019-04-28T05:22:50.588Z,11.53
2019-04-28T05:25:24.531Z,11.03
2019-04-28T05:27:59.379Z,10.95
2019-04-28T05:30:29.654Z,10.25
2019-04-28T05:33:00.819Z,9.68
2019-04-28T05:35:31.763Z,11.48
2019-04-28T05:38:16.773Z,10.85
2019-04-28T05:40:49.829Z,11.88
2019-04-28T05:43:21.468Z,11.00
2019-04-28T05:45:55.467Z,10.85
2019-04-28T05:48:30.237Z,11.70
2019-04-28T05:51:02.606Z,10.50
2019-04-28T05:53:35.354Z,11.83
2019-04-28T05:56:10.697Z,12.00
2019-04-28T05:58:43.039Z,11.40
2019-04-28T06:01:15.619Z,10.85
2019-04-28T06:03:47.509Z,10.50
2019-04-28T06:06:20.449Z,9.70
2019-04-28T06:08:54.110Z,11.00
2019-04-28T06:11:26.370Z,10.70
2019-04-28T06:13:59.745Z,10.10
2019-04-28T06:16:33.610Z,10.13
2019-04-28T06:19:10.262Z,10.35
2019-04-28T06:21:42.398Z,10.93
2019-04-28T06:24:14.689Z,10.53
2019-04-28T06:26:50.713Z,10.93
2019-04-28T06:29:24.060Z,10.55
2019-04-28T06:31:55.470Z,10.68
2019-04-28T06:34:26.700Z,10.45
2019-04-28T06:36:58.719Z,11.40
2019-04-28T06:39:30.005Z,10.70
2019-04-28T06:42:03.716Z,10.18
2019-04-28T06:44:38.704Z,10.58
2019-04-28T06:47:16.780Z,9.70
2019-04-28T06:49:49.980Z,9.53
2019-04-28T06:52:21.203Z,9.98
2019-04-28T06:55:02.789Z,10.03
2019-04-28T06:57:33.990Z,10.25
2019-04-28T07:00:06.937Z,9.83
2019-04-28T07:02:44.217Z,10.13
2019-04-28T07:05:18.221Z,9.78
2019-04-28T07:07:49.715Z,10.38
2019-04-28T07:10:25.497Z,9.95
2019-04-28T07:12:58.097Z,10.18
2019-04-28T07:15:41.098Z,10.00
2019-04-28T07:18:12.094Z,10.10
2019-04-28T07:20:42.650Z,10.00
2019-04-28T07:23:13.631Z,9.65
2019-04-28T07:25:44.750Z,9.75
2019-04-28T07:28:15.898Z,9.35
2019-04-28T07:30:46.843Z,9.13
2019-04-28T07:33:18.569Z,10.00
2019-04-28T07:35:49.680Z,8.95
2019-04-28T07:38:20.722Z,9.55
2019-04-28T07:40:53.210Z,9.65
2019-04-28T07:43:24.115Z,9.50
2019-04-28T07:45:57.829Z,9.63
2019-04-28T07:48:29.301Z,9.88
2019-04-28T07:51:02.824Z,10.50
2019-04-28T07:53:38.095Z,9.63
2019-04-28T07:56:09.550Z,9.75
2019-04-28T07:58:40.589Z,9.73
2019-04-28T08:01:13.068Z,8.88
2019-04-28T08:03:49.812Z,9.38
2019-04-28T08:06:16.623Z,8.90
2019-04-28T08:08:48.021Z,9.10
2019-04-28T08:11:21.806Z,9.03
2019-04-28T08:13:56.275Z,9.25
2019-04-28T08:16:27.328Z,8.30
2019-04-28T08:19:00.465Z,9.05
2019-04-28T08:21:34.597Z,9.68
2019-04-28T08:24:10.852Z,8.55
2019-04-28T08:26:42.145Z,8.75
2019-04-28T08:29:13.593Z,9.68
2019-04-28T08:31:47.738Z,10.60
2019-04-28T08:34:27.978Z,9.60
2019-04-28T08:36:59.688Z,9.05
2019-04-28T08:39:30.845Z,9.25
2019-04-28T08:42:01.832Z,9.50
2019-04-28T08:44:32.960Z,9.05
2019-04-28T08:47:04.516Z,8.50
2019-04-28T08:49:35.641Z,8.43
2019-04-28T08:52:11.969Z,8.95
2019-04-28T08:54:43.246Z,8.40
2019-04-28T08:57:14.120Z,9.08
2019-04-28T08:59:45.168Z,8.95
2019-04-28T09:02:16.332Z,8.98
2019-04-28T09:04:47.226Z,9.18
2019-04-28T09:07:18.115Z,9.58
2019-04-28T09:09:49.819Z,9.65
2019-04-28T09:12:20.638Z,8.88
2019-04-28T09:14:51.745Z,8.80
2019-04-28T09:17:22.898Z,9.43
2019-04-28T09:19:56.481Z,9.08
2019-04-28T09:22:27.489Z,8.70
2019-04-28T09:24:59.753Z,8.98
2019-04-28T09:27:30.946Z,9.10
2019-04-28T09:30:02.057Z,8.50
2019-04-28T09:32:36.128Z,9.05
2019-04-28T09:35:08.659Z,8.73
2019-04-28T09:37:42.470Z,10.08
2019-04-28T09:40:15.637Z,8.75
2019-04-28T09:42:48.052Z,9.00
2019-04-28T09:45:21.995Z,7.80
2019-04-28T09:47:52.983Z,8.60
2019-04-28T09:50:24.301Z,9.40
2019-04-28T09:52:55.630Z,8.15
2019-04-28T09:55:26.962Z,8.28
2019-04-28T09:57:58.160Z,8.80
2019-04-28T10:00:29.420Z,8.53
2019-04-28T10:03:04.069Z,8.40
2019-04-28T10:05:35.217Z,9.15
2019-04-28T10:08:14.842Z,8.40
2019-04-28T10:13:16.179Z,13.70
2019-04-28T10:15:47.322Z,18.05
2019-04-28T10:18:18.266Z,18.73
2019-04-28T10:20:49.203Z,19.95
2019-04-28T10:23:22.037Z,19.98
2019-04-28T10:25:52.589Z,20.27
2019-04-28T10:28:23.890Z,21.00
2019-04-28T10:30:54.739Z,19.55
2019-04-28T10:33:25.869Z,20.08
2019-04-28T10:35:59.144Z,21.40
2019-04-28T10:38:30.736Z,22.07
2019-04-28T10:41:02.983Z,22.32
2019-04-28T10:43:33.932Z,23.52
2019-04-28T10:46:04.990Z,23.18
2019-04-28T10:48:35.908Z,22.22
2019-04-28T10:51:07.141Z,23.83
2019-04-28T10:53:38.504Z,23.00
2019-04-28T10:56:09.336Z,22.80
2019-04-28T10:58:41.592Z,23.62
2019-04-28T11:01:12.848Z,23.15
2019-04-28T11:03:45.240Z,23.67
2019-04-28T11:06:16.488Z,23.18
2019-04-28T11:08:49.376Z,24.07
2019-04-28T11:11:22.977Z,25.68
2019-04-28T11:13:54.173Z,25.02
2019-04-28T11:16:26.509Z,25.80
2019-04-28T11:18:58.186Z,25.88
2019-04-28T11:21:29.325Z,25.85
2019-04-28T11:24:00.231Z,27.70
2019-04-28T11:26:33.141Z,26.70
2019-04-28T11:29:03.850Z,24.72
2019-04-28T11:31:35.160Z,27.25
2019-04-28T11:34:07.495Z,27.10
2019-04-28T11:36:39.015Z,26.50
2019-04-28T11:39:11.615Z,25.77
2019-04-28T11:41:42.671Z,25.72
2019-04-28T11:44:13.975Z,28.02
2019-04-28T11:46:45.180Z,26.70
2019-04-28T11:49:16.386Z,26.00
2019-04-28T11:51:47.727Z,23.90
2019-04-28T11:54:18.739Z,22.90
2019-04-28T11:56:50.848Z,23.47
2019-04-28T11:59:24.625Z,23.27
2019-04-28T12:01:55.873Z,23.30
2019-04-28T12:04:30.875Z,24.57
2019-04-28T12:07:01.956Z,23.18
2019-04-28T12:09:34.156Z,24.25
2019-04-28T12:12:11.766Z,24.30
2019-04-28T12:14:42.687Z,24.90
2019-04-28T12:17:14.843Z,25.52
2019-04-28T12:19:50.859Z,25.45
2019-04-28T12:22:21.795Z,25.57
2019-04-28T12:24:52.914Z,26.37
2019-04-28T12:27:24.293Z,25.27
2019-04-28T12:29:55.068Z,25.23
2019-04-28T12:32:26.022Z,25.30
2019-04-28T12:34:57.257Z,25.32
2019-04-28T12:37:28.380Z,24.65
2019-04-28T12:39:59.396Z,25.90
2019-04-28T12:42:30.478Z,25.95
2019-04-28T12:45:01.580Z,29.30
2019-04-28T12:47:36.614Z,30.92
2019-04-28T12:50:10.440Z,29.57
2019-04-28T12:52:41.435Z,26.17
2019-04-28T12:55:13.887Z,24.63
2019-04-28T12:57:48.284Z,24.67
2019-04-28T13:00:21.065Z,25.82
2019-04-28T13:03:04.715Z,24.52
2019-04-28T13:05:37.037Z,25.05
2019-04-28T13:08:10.091Z,25.48
2019-04-28T13:10:40.994Z,25.70
2019-04-28T13:13:12.303Z,24.82
2019-04-28T13:15:43.303Z,24.35
2019-04-28T13:18:15.792Z,24.87
2019-04-28T13:20:47.847Z,24.00
2019-04-28T13:23:18.920Z,21.00
2019-04-28T13:25:49.835Z,20.20
2019-04-28T13:28:21.120Z,17.02
2019-04-28T13:30:52.335Z,16.00
2019-04-28T13:33:24.565Z,14.28
2019-04-28T13:35:57.798Z,11.65
2019-04-28T13:38:28.627Z,11.70
2019-04-28T13:41:02.426Z,10.95
2019-04-28T13:43:33.597Z,10.70
2019-04-28T13:46:04.597Z,10.40
2019-04-28T13:48:35.638Z,9.13
2019-04-28T13:51:06.563Z,7.80
2019-04-28T13:53:38.547Z,8.23
2019-04-28T13:56:10.955Z,8.25
2019-04-28T13:58:42.493Z,7.90
2019-04-28T14:01:14.784Z,6.40
2019-04-28T14:03:47.582Z,7.28
2019-04-28T14:06:28.153Z,6.05
2019-04-28T14:08:52.437Z,6.78
2019-04-28T14:11:23.500Z,6.87
2019-04-28T14:13:54.513Z,6.50
2019-04-28T14:16:25.646Z,7.42
2019-04-28T14:18:56.587Z,6.72
2019-04-28T14:21:29.292Z,6.83
2019-04-28T14:24:00.664Z,7.37
2019-04-28T14:26:31.914Z,7.45
2019-04-28T14:29:04.566Z,6.80
2019-04-28T14:31:35.615Z,8.08
2019-04-28T14:34:06.892Z,7.08
2019-04-28T14:36:42.365Z,7.35
2019-04-28T14:39:12.041Z,7.60
2019-04-28T14:41:43.157Z,7.17
2019-04-28T14:44:17.323Z,7.85
2019-04-28T14:46:47.054Z,7.20
2019-04-28T14:49:18.126Z,7.40
2019-04-28T14:51:51.975Z,7.60
2019-04-28T14:54:23.718Z,7.92
2019-04-28T14:56:59.051Z,8.73
2019-04-28T14:59:30.339Z,8.13
2019-04-28T15:02:03.107Z,8.60
2019-04-28T15:04:35.787Z,8.48
2019-04-28T15:07:08.366Z,7.65
2019-04-28T15:09:41.161Z,8.45
2019-04-28T15:12:12.117Z,8.70
2019-04-28T15:14:43.615Z,8.00
2019-04-28T15:17:14.645Z,8.63
2019-04-28T15:19:45.927Z,8.60
2019-04-28T15:22:16.917Z,8.93
2019-04-28T15:24:47.789Z,8.80
2019-04-28T15:27:18.987Z,8.88
2019-04-28T15:29:50.981Z,8.65
2019-04-28T15:32:23.308Z,8.85
2019-04-28T15:34:54.263Z,9.58
2019-04-28T15:37:25.591Z,9.20
2019-04-28T15:39:56.885Z,9.35
2019-04-28T15:42:28.863Z,9.38
2019-04-28T15:45:00.338Z,9.48
2019-04-28T15:47:31.496Z,10.32
2019-04-28T15:50:02.486Z,9.80
2019-04-28T15:52:34.187Z,9.53
2019-04-28T15:55:07.514Z,10.78
2019-04-28T15:57:38.840Z,9.23
2019-04-28T16:00:11.973Z,10.18
2019-04-28T16:02:42.949Z,10.18
2019-04-28T16:05:14.391Z,9.85
2019-04-28T16:07:45.376Z,9.65
2019-04-28T16:10:16.910Z,10.30
2019-04-28T16:12:48.716Z,10.08
2019-04-28T16:15:19.794Z,16.30
2019-04-28T16:17:51.197Z,10.63
2019-04-28T16:20:22.711Z,10.85
2019-04-28T16:22:53.523Z,10.65
2019-04-28T16:25:24.454Z,10.25
2019-04-28T16:27:56.820Z,9.80
2019-04-28T16:30:28.292Z,9.70
2019-04-28T16:32:59.363Z,11.70
2019-04-28T16:35:31.593Z,10.65
2019-04-28T16:38:02.757Z,10.53
2019-04-28T16:40:34.595Z,9.83
2019-04-28T16:43:06.305Z,10.15
2019-04-28T16:45:37.342Z,10.10
2019-04-28T16:48:08.481Z,11.12
2019-04-28T16:50:39.772Z,9.85
2019-04-28T16:53:10.843Z,10.08
2019-04-28T16:55:43.542Z,10.05
2019-04-28T16:58:15.680Z,11.30
2019-04-28T17:00:48.073Z,10.58
2019-04-28T17:03:18.989Z,10.43
2019-04-28T17:05:50.032Z,10.90
2019-04-28T17:08:20.887Z,11.18
2019-04-28T17:10:52.115Z,10.98
2019-04-28T17:13:23.251Z,10.80
2019-04-28T17:15:54.426Z,11.22
2019-04-28T17:18:25.532Z,11.00
2019-04-28T17:20:56.398Z,11.03
2019-04-28T17:23:27.361Z,10.82
2019-04-28T17:25:58.227Z,11.73
2019-04-28T17:28:29.480Z,10.82
2019-04-28T17:31:01.346Z,10.05
2019-04-28T17:33:32.273Z,10.25
2019-04-28T17:36:03.478Z,10.32
2019-04-28T17:38:35.827Z,10.43
2019-04-28T17:41:07.458Z,10.38
2019-04-28T17:43:38.622Z,10.78
2019-04-28T17:46:09.750Z,12.53
2019-04-28T17:48:42.432Z,12.18
2019-04-28T17:51:13.230Z,11.88
2019-04-28T17:53:44.490Z,12.65
2019-04-28T17:56:15.600Z,13.38
2019-04-28T17:58:46.650Z,12.60
2019-04-28T18:01:19.175Z,13.43
2019-04-28T18:03:51.440Z,15.43
2019-04-28T18:06:23.842Z,15.40
2019-04-28T18:08:55.079Z,15.80
2019-04-28T18:11:26.121Z,16.93
2019-04-28T18:13:57.046Z,18.37
2019-04-28T18:16:29.936Z,18.00
2019-04-28T18:19:02.435Z,18.05
2019-04-28T18:21:33.470Z,18.87
2019-04-28T18:24:04.608Z,19.50
2019-04-28T18:26:35.740Z,18.82
2019-04-28T18:29:06.814Z,19.57
2019-04-28T18:31:37.969Z,20.17
2019-04-28T18:34:10.342Z,20.12
2019-04-28T18:36:42.875Z,18.55
2019-04-28T18:39:15.083Z,20.95
2019-04-28T18:41:47.367Z,20.10
2019-04-28T18:44:20.041Z,19.92
2019-04-28T18:46:51.257Z,19.85
2019-04-28T18:49:22.232Z,19.20
2019-04-28T18:51:53.165Z,19.98
2019-04-28T18:54:24.391Z,20.15
2019-04-28T18:56:55.262Z,21.60
2019-04-28T18:59:26.426Z,21.07
2019-04-28T19:01:58.763Z,20.75
2019-04-28T19:04:29.652Z,20.68
2019-04-28T19:07:05.340Z,19.87
2019-04-28T19:09:35.837Z,19.23
2019-04-28T19:12:08.184Z,20.10
2019-04-28T19:14:41.180Z,19.90
2019-04-28T19:17:14.886Z,19.42
2019-04-28T19:19:46.049Z,17.80
2019-04-28T19:22:16.988Z,18.45
2019-04-28T19:24:47.851Z,17.65
2019-04-28T19:27:18.951Z,17.98
2019-04-28T19:29:50.006Z,18.20
2019-04-28T19:32:21.020Z,16.82
2019-04-28T19:34:52.254Z,16.05
2019-04-28T19:37:23.546Z,16.35
2019-04-28T19:39:54.592Z,17.62
2019-04-28T19:42:25.530Z,17.55
2019-04-28T19:44:56.321Z,16.65
2019-04-28T19:47:27.094Z,18.45
2019-04-28T19:49:58.193Z,17.67
2019-04-28T19:52:29.274Z,16.70
2019-04-28T19:55:02.894Z,17.57
2019-04-28T19:57:35.118Z,16.77
2019-04-28T20:00:08.964Z,17.45
2019-04-28T20:02:40.037Z,16.57
2019-04-28T20:05:11.222Z,17.00
2019-04-28T20:07:42.073Z,16.75
2019-04-28T20:10:13.242Z,15.75
2019-04-28T20:12:44.411Z,16.05
2019-04-28T20:15:15.749Z,16.30
2019-04-28T20:17:46.817Z,16.70
2019-04-28T20:20:17.847Z,17.07
2019-04-28T20:22:49.083Z,15.50
2019-04-28T20:25:20.345Z,16.90
2019-04-28T20:27:51.369Z,14.53
2019-04-28T20:30:22.284Z,14.95
2019-04-28T20:33:06.150Z,14.93
2019-04-28T20:35:26.891Z,14.45
2019-04-28T20:37:59.147Z,16.00
2019-04-28T20:40:31.657Z,15.28
2019-04-28T20:43:04.082Z,15.28
2019-04-28T20:45:35.259Z,15.53
2019-04-28T20:48:07.515Z,15.08
2019-04-28T20:50:38.765Z,14.70
2019-04-28T20:53:09.853Z,14.83
2019-04-28T20:55:40.889Z,14.83
2019-04-28T20:58:12.019Z,14.47
2019-04-28T21:00:43.182Z,15.63
2019-04-28T21:03:14.006Z,15.95
2019-04-28T21:05:46.179Z,16.75
2019-04-28T21:08:16.922Z,16.40
2019-04-28T21:10:48.277Z,16.80
2019-04-28T21:13:19.149Z,17.10
2019-04-28T21:15:49.948Z,16.27
2019-04-28T21:18:21.242Z,15.98
2019-04-28T21:20:52.593Z,16.30
2019-04-28T21:23:23.479Z,15.23
2019-04-28T21:25:54.515Z,15.15
2019-04-28T21:28:25.452Z,15.25
2019-04-28T21:30:56.263Z,15.28
2019-04-28T21:33:27.270Z,14.80
2019-04-28T21:35:58.335Z,14.93
2019-04-28T21:38:29.175Z,13.98
2019-04-28T21:41:00.566Z,14.40
2019-04-28T21:43:32.967Z,14.00
2019-04-28T21:46:05.309Z,13.65
2019-04-28T21:48:37.838Z,13.25
2019-04-28T21:51:11.617Z,13.28
2019-04-28T21:53:41.227Z,13.32
2019-04-28T21:56:12.285Z,13.28
2019-04-28T21:58:44.318Z,14.23
2019-04-28T22:01:17.849Z,14.13
2019-04-28T22:03:49.730Z,14.28
2019-04-28T22:06:20.784Z,13.43
2019-04-28T22:08:51.799Z,14.00
2019-04-28T22:11:22.666Z,13.10
2019-04-28T22:13:53.828Z,12.88
2019-04-28T22:16:26.679Z,13.60
2019-04-28T22:18:57.605Z,12.15
2019-04-28T22:21:28.422Z,13.15
2019-04-28T22:24:01.235Z,13.03
2019-04-28T22:26:33.697Z,12.28
2019-04-28T22:29:04.940Z,12.53
2019-04-28T22:31:36.066Z,11.93
2019-04-28T22:34:07.298Z,11.57
2019-04-28T22:36:38.395Z,13.08
2019-04-28T22:39:09.866Z,12.75
2019-04-28T22:41:43.904Z,12.23
2019-04-28T22:44:14.837Z,12.55
2019-04-28T22:46:45.802Z,13.00
2019-04-28T22:49:16.837Z,13.03
2019-04-28T22:51:47.929Z,13.35
2019-04-28T22:54:20.517Z,12.90
2019-04-28T22:56:53.397Z,12.37
2019-04-28T22:59:25.874Z,13.65
2019-04-28T23:01:59.274Z,13.95
2019-04-28T23:04:31.873Z,13.08
2019-04-28T23:07:03.007Z,13.95
2019-04-28T23:09:34.214Z,13.95
2019-04-28T23:12:05.513Z,14.20
2019-04-28T23:14:36.647Z,14.25
2019-04-28T23:17:09.086Z,14.60
2019-04-28T23:19:41.241Z,14.85
2019-04-28T23:22:13.774Z,16.20
2019-04-28T23:24:45.477Z,15.20
2019-04-28T23:27:17.013Z,15.08
2019-04-28T23:29:47.805Z,20.85
2019-04-28T23:32:18.954Z,20.95
2019-04-28T23:34:49.734Z,19.40
2019-04-28T23:37:20.649Z,17.77
2019-04-28T23:39:51.655Z,14.95
2019-04-28T23:42:26.054Z,16.02
2019-04-28T23:44:57.093Z,14.73
2019-04-28T23:47:28.333Z,13.10
2019-04-28T23:49:59.514Z,14.33
2019-04-28T23:52:31.945Z,14.00
2019-04-28T23:55:04.480Z,13.65
2019-04-28T23:57:35.369Z,15.60
